Tortosa, Spain

3:47 PM CEST on September 19, 2014 (GMT +0200)
Sant Llatzer | Change Station
CLOSE
Current Station
Personal Weather Station
Location: Tortosa, TGN
Elevation: 5 ft
Nearby Weather Stations

Elev 5 ft 40.80 °N, 0.52 °E | Updated 40 seconds ago

Partly Cloudy
Partly Cloudy
83.5 °F
Feels Like 87 °F
N
5.0
Wind Variable Wind from ESE
Gusts 13.0 mph

Today
High -- | Low -- °F
--% Chance of Precip.
Yesterday
High -- | Low -- °F
Precip. -- in
7:42 AM 8:00 PM
Waning Crescent, 19% visible
Pressure 29.89 in
Visibility 6.2 miles
Clouds Few 3000 ft
Heat Index 87 °F
Dew Point 69 °F
Humidity 62%
Rainfall 0.00 in
Snow Depth Not available.
UV 7 out of 12
Pollen Not available.
Air Quality Not available.
Flu Activity Not available.
METAR LERS 191330Z 15006KT 090V240 9999 FEW030 28/16 Q1012

More Conditions Fewer Conditions

Pressure 29.89 in
Visibility 6.2 miles
Clouds Few 3000 ft
Heat Index 87 °F
Dew Point 69 °F
Humidity 62%
Rainfall 0.00 in
Snow Depth Not available.
UV 7 out of 12
Pollen Not available.
Air Quality Not available.
Flu Activity Not available.
METAR LERS 191330Z 15006KT 090V240 9999 FEW030 28/16 Q1012

More Conditions Fewer Conditions

10-Day Weather Forecast

Almanac

Astronomy

Sep. 19, 2014 Rise Set
Actual Time 7:42 AM CEST 8:00 PM CEST
Civil Twilight 7:14 AM CEST 8:28 PM CEST
Nautical Twilight 6:42 AM CEST 9:00 PM CEST
Astronomical Twilight 6:09 AM CEST 9:33 PM CEST
Moon 3:12 AM CEST 5:21 PM CEST
Length Of Visible Light 13h 13m
Length of Day
12h 18m
Tomorrow will be 2m 41s shorter.
Waning Crescent, 19% of the Moon is Illuminated
Today
Waning Crescent
Sep 24
New
Oct 1
First Quarter
Oct 8
Full
Oct 15
Last Quarter

Yesterday's Extremes

Country Highs Country Lows

Community

WunderPhotos

Upload Photos

1,754,608 photos uploaded!

WunderBlogs® & News

Nearby

Snow Depth

Not available.

Earthquake Activity

City Distance Mag. Time & Date
No recent earthquake activity has been reported nearby.
Minimum magnitude displayed is 2.5.

Coastal Water Temperatures

Place Temperature
No Stations Reporting

Nearby Weather Stations